createdAt,value
2022-12-24T00:01:19.210Z,1.58
2022-12-24T00:03:46.301Z,1.55
2022-12-24T00:06:20.231Z,1.95
2022-12-24T00:08:47.313Z,2.15
2022-12-24T00:11:14.890Z,2.00
2022-12-24T00:13:41.907Z,1.83
2022-12-24T00:16:08.926Z,2.00
2022-12-24T00:18:41.515Z,2.30
2022-12-24T00:21:12.483Z,2.42
2022-12-24T00:23:40.677Z,2.20
2022-12-24T00:26:07.839Z,2.30
2022-12-24T00:28:35.127Z,2.92
2022-12-24T00:31:17.897Z,2.42
2022-12-24T00:33:47.282Z,1.88
2022-12-24T00:36:14.647Z,2.13
2022-12-24T00:38:41.697Z,2.20
2022-12-24T00:41:25.156Z,2.17
2022-12-24T00:43:54.896Z,1.95
2022-12-24T00:46:22.337Z,1.40
2022-12-24T00:48:49.402Z,1.70
2022-12-24T00:51:17.071Z,1.52
2022-12-24T00:53:44.385Z,1.58
2022-12-24T00:56:11.523Z,1.60
2022-12-24T00:58:38.683Z,1.30
2022-12-24T01:01:06.777Z,1.58
2022-12-24T01:03:37.269Z,1.40
2022-12-24T01:06:12.114Z,1.02
2022-12-24T01:08:40.079Z,1.35
2022-12-24T01:11:09.186Z,0.80
2022-12-24T01:13:37.365Z,1.20
2022-12-24T01:16:13.311Z,1.08
2022-12-24T01:18:40.404Z,0.90
2022-12-24T01:21:07.406Z,0.82
2022-12-24T01:23:34.474Z,0.60
2022-12-24T01:26:05.492Z,1.00
2022-12-24T01:28:34.280Z,1.00
2022-12-24T01:31:01.378Z,0.93
2022-12-24T01:33:30.010Z,0.80
2022-12-24T01:35:57.069Z,1.00
2022-12-24T01:38:24.067Z,0.80
2022-12-24T01:41:09.572Z,0.80
2022-12-24T01:43:36.639Z,0.77
2022-12-24T01:46:07.802Z,0.88
2022-12-24T01:48:49.934Z,1.00
2022-12-24T01:51:30.637Z,1.10
2022-12-24T01:54:05.781Z,0.90
2022-12-24T01:56:35.250Z,0.80
2022-12-24T01:59:07.551Z,0.70
2022-12-24T02:01:34.993Z,0.88
2022-12-24T02:04:12.230Z,0.93
2022-12-24T02:06:39.310Z,0.90
2022-12-24T02:09:07.451Z,0.85
2022-12-24T02:11:37.903Z,1.00
2022-12-24T02:14:05.135Z,0.75
2022-12-24T02:16:34.921Z,0.70
2022-12-24T02:19:23.939Z,0.80
2022-12-24T02:22:02.264Z,0.55
2022-12-24T02:25:11.072Z,0.60
2022-12-24T02:28:02.687Z,0.43
2022-12-24T02:30:54.142Z,0.50
2022-12-24T02:33:53.445Z,0.50
2022-12-24T02:36:25.936Z,0.40
2022-12-24T02:39:04.471Z,0.40
2022-12-24T02:41:58.910Z,0.40
2022-12-24T02:44:29.053Z,0.60
2022-12-24T02:46:59.300Z,0.40
2022-12-24T02:49:26.570Z,0.60
2022-12-24T02:51:53.600Z,0.60
2022-12-24T02:54:20.753Z,0.40
2022-12-24T02:57:29.730Z,0.60
2022-12-24T03:00:05.850Z,0.60
2022-12-24T03:03:19.967Z,0.50
2022-12-24T03:06:08.373Z,0.70
2022-12-24T03:08:48.421Z,0.45
2022-12-24T03:11:16.884Z,0.50
2022-12-24T03:13:44.929Z,0.40
2022-12-24T03:16:21.507Z,0.50
2022-12-24T03:18:51.019Z,0.45
2022-12-24T03:21:38.148Z,0.50
2022-12-24T03:24:05.615Z,0.52
2022-12-24T03:26:34.251Z,0.50
2022-12-24T03:29:06.687Z,0.70
2022-12-24T03:31:48.622Z,0.60
2022-12-24T03:34:16.730Z,0.63
2022-12-24T03:36:44.172Z,0.55
2022-12-24T03:39:11.344Z,0.52
2022-12-24T03:41:39.430Z,0.68
2022-12-24T03:44:06.494Z,0.57
2022-12-24T03:46:33.625Z,0.60
2022-12-24T03:49:00.681Z,0.70
2022-12-24T03:51:28.653Z,0.70
2022-12-24T03:53:57.154Z,0.50
2022-12-24T03:56:25.400Z,0.65
2022-12-24T03:58:53.671Z,0.77
2022-12-24T04:01:20.868Z,1.00
2022-12-24T04:03:48.005Z,0.80
2022-12-24T04:06:17.948Z,0.73
2022-12-24T04:08:45.058Z,0.82
2022-12-24T04:11:14.922Z,0.95
2022-12-24T04:13:42.002Z,1.00
2022-12-24T04:16:13.186Z,0.80
2022-12-24T04:18:41.333Z,0.98
2022-12-24T04:21:10.176Z,1.00
2022-12-24T04:23:39.583Z,0.93
2022-12-24T04:26:08.349Z,0.77
2022-12-24T04:28:36.310Z,0.98
2022-12-24T04:31:06.708Z,0.77
2022-12-24T04:33:34.498Z,0.95
2022-12-24T04:36:03.255Z,0.90
2022-12-24T04:38:31.336Z,1.10
2022-12-24T04:41:00.673Z,1.23
2022-12-24T04:43:28.698Z,1.02
2022-12-24T04:45:56.071Z,0.82
2022-12-24T04:48:23.314Z,1.15
2022-12-24T04:50:50.361Z,1.17
2022-12-24T04:53:17.469Z,0.90
2022-12-24T04:55:48.452Z,1.10
2022-12-24T04:58:15.512Z,0.95
2022-12-24T05:00:42.513Z,0.90
2022-12-24T05:03:09.663Z,0.80
2022-12-24T05:05:36.760Z,0.65
2022-12-24T05:08:03.906Z,0.70
2022-12-24T05:10:31.000Z,0.70
2022-12-24T05:12:58.076Z,0.82
2022-12-24T05:15:25.390Z,1.10
2022-12-24T05:17:52.762Z,6.68
2022-12-24T05:20:19.775Z,9.23
2022-12-24T05:23:05.142Z,4.35
2022-12-24T05:25:59.575Z,2.80
2022-12-24T05:28:26.774Z,1.75
2022-12-24T05:30:53.844Z,0.77
2022-12-24T05:33:20.949Z,0.68
2022-12-24T05:35:47.925Z,0.80
2022-12-24T05:38:14.965Z,0.60
2022-12-24T05:40:41.999Z,0.70
2022-12-24T05:43:09.023Z,0.80
2022-12-24T05:45:36.061Z,0.50
2022-12-24T05:48:03.131Z,0.70
2022-12-24T05:50:30.190Z,0.60
2022-12-24T05:52:57.244Z,0.70
2022-12-24T05:55:24.287Z,0.60
2022-12-24T05:57:51.348Z,0.90
2022-12-24T06:00:18.687Z,0.77
2022-12-24T06:02:45.798Z,0.73
2022-12-24T06:05:12.821Z,1.13
2022-12-24T06:07:40.054Z,0.80
2022-12-24T06:10:07.846Z,0.90
2022-12-24T06:12:35.211Z,0.80
2022-12-24T06:15:02.243Z,0.70
2022-12-24T06:17:29.281Z,0.88
2022-12-24T06:19:56.346Z,1.17
2022-12-24T06:22:23.390Z,0.95
2022-12-24T06:24:50.478Z,1.30
2022-12-24T06:27:17.495Z,1.25
2022-12-24T06:29:44.561Z,0.70
2022-12-24T06:32:11.618Z,1.02
2022-12-24T06:34:38.681Z,0.77
2022-12-24T06:37:05.749Z,0.60
2022-12-24T06:39:32.727Z,1.08
2022-12-24T06:41:59.854Z,0.90
2022-12-24T06:44:26.915Z,0.80
2022-12-24T06:46:54.017Z,1.08
2022-12-24T06:49:21.095Z,0.95
2022-12-24T06:51:48.147Z,0.75
2022-12-24T06:54:15.144Z,1.40
2022-12-24T06:56:42.158Z,1.00
2022-12-24T06:59:09.314Z,0.90
2022-12-24T07:01:36.457Z,1.45
2022-12-24T07:04:03.714Z,1.30
2022-12-24T07:06:31.697Z,1.50
2022-12-24T07:08:58.747Z,1.27
2022-12-24T07:11:26.299Z,1.70
2022-12-24T07:13:53.318Z,1.50
2022-12-24T07:16:20.539Z,1.25
2022-12-24T07:18:47.922Z,1.00
2022-12-24T07:21:15.008Z,0.85
2022-12-24T07:23:42.021Z,1.08
2022-12-24T07:26:09.104Z,0.80
2022-12-24T07:28:36.210Z,1.00
2022-12-24T07:31:03.558Z,0.70
2022-12-24T07:33:30.862Z,0.82
2022-12-24T07:36:01.179Z,0.93
2022-12-24T07:38:28.799Z,0.95
2022-12-24T07:40:56.292Z,1.13
2022-12-24T07:43:23.350Z,1.25
2022-12-24T07:45:50.919Z,1.00
2022-12-24T07:48:21.031Z,0.95
2022-12-24T07:50:50.574Z,1.00
2022-12-24T07:53:17.660Z,0.70
2022-12-24T07:55:45.630Z,1.00
2022-12-24T07:58:12.726Z,0.80
2022-12-24T08:00:39.765Z,0.85
2022-12-24T08:03:06.997Z,0.98
2022-12-24T08:05:37.544Z,0.95
2022-12-24T08:08:07.783Z,0.90
2022-12-24T08:10:34.867Z,1.00
2022-12-24T08:13:01.886Z,1.27
2022-12-24T08:15:28.953Z,1.00
2022-12-24T08:17:55.940Z,1.30
2022-12-24T08:20:23.001Z,1.17
2022-12-24T08:22:50.041Z,1.10
2022-12-24T08:25:17.158Z,1.17
2022-12-24T08:27:44.149Z,0.70
2022-12-24T08:30:14.834Z,0.93
2022-12-24T08:32:46.080Z,0.70
2022-12-24T08:35:13.140Z,1.10
2022-12-24T08:37:40.224Z,1.00
2022-12-24T08:40:07.839Z,1.33
2022-12-24T08:42:34.913Z,1.23
2022-12-24T08:45:02.148Z,1.10
2022-12-24T08:47:29.236Z,1.10
2022-12-24T08:49:56.212Z,1.10
2022-12-24T08:52:23.244Z,1.02
2022-12-24T08:54:50.263Z,0.80
2022-12-24T08:57:17.311Z,0.77
2022-12-24T08:59:44.344Z,1.17
2022-12-24T09:02:11.774Z,0.80
2022-12-24T09:04:43.428Z,0.80
2022-12-24T09:07:11.491Z,0.90
2022-12-24T09:09:38.556Z,1.05
2022-12-24T09:12:10.247Z,1.02
2022-12-24T09:14:37.342Z,1.40
2022-12-24T09:17:04.418Z,1.25
2022-12-24T09:19:31.501Z,1.20
2022-12-24T09:21:58.528Z,0.70
2022-12-24T09:24:25.592Z,1.20
2022-12-24T09:26:57.677Z,1.33
2022-12-24T09:29:25.905Z,1.20
2022-12-24T09:31:55.360Z,1.40
2022-12-24T09:34:29.998Z,1.00
2022-12-24T09:36:57.705Z,1.85
2022-12-24T09:39:24.832Z,1.17
2022-12-24T09:42:19.753Z,1.30
2022-12-24T09:44:59.114Z,1.15
2022-12-24T09:47:39.932Z,1.30
2022-12-24T09:50:41.648Z,1.42
2022-12-24T09:53:43.748Z,1.17
2022-12-24T09:56:26.299Z,1.35
2022-12-24T09:59:01.753Z,1.05
2022-12-24T10:01:34.257Z,1.30
2022-12-24T10:04:16.666Z,1.58
2022-12-24T10:06:49.364Z,1.30
2022-12-24T10:09:40.337Z,1.40
2022-12-24T10:12:33.387Z,1.10
2022-12-24T10:15:49.990Z,1.30
2022-12-24T10:18:45.580Z,1.80
2022-12-24T10:21:49.154Z,1.42
2022-12-24T10:24:26.158Z,1.20
2022-12-24T10:27:16.217Z,1.50
2022-12-24T10:29:56.482Z,1.00
2022-12-24T10:32:27.732Z,1.13
2022-12-24T10:35:19.404Z,1.48
2022-12-24T10:37:51.334Z,1.02
2022-12-24T10:40:28.212Z,1.00
2022-12-24T10:42:55.451Z,1.35
2022-12-24T10:45:24.828Z,1.42
2022-12-24T10:47:57.523Z,1.00
2022-12-24T10:50:39.802Z,1.38
2022-12-24T10:53:27.316Z,1.30
2022-12-24T10:56:04.217Z,1.20
2022-12-24T10:58:31.547Z,1.60
2022-12-24T11:00:58.743Z,1.40
2022-12-24T11:03:30.422Z,1.70
2022-12-24T11:06:07.988Z,1.58
2022-12-24T11:08:37.833Z,1.65
2022-12-24T11:11:08.856Z,1.05
2022-12-24T11:13:41.403Z,1.30
2022-12-24T11:16:15.628Z,1.20
2022-12-24T11:18:51.566Z,1.50
2022-12-24T11:21:26.134Z,1.35
2022-12-24T11:23:56.916Z,1.30
2022-12-24T11:26:27.578Z,1.85
2022-12-24T11:29:08.491Z,1.50
2022-12-24T11:31:38.731Z,1.27
2022-12-24T11:34:26.291Z,1.60
2022-12-24T11:36:57.047Z,1.75
2022-12-24T11:39:26.116Z,1.42
2022-12-24T11:41:54.576Z,1.35
2022-12-24T11:44:27.367Z,1.42
2022-12-24T11:46:58.837Z,1.63
2022-12-24T11:49:30.252Z,1.90
2022-12-24T11:52:12.207Z,1.40
2022-12-24T11:54:51.195Z,1.48
2022-12-24T11:57:22.739Z,1.70
2022-12-24T11:59:50.448Z,1.58
2022-12-24T12:02:33.418Z,1.77
2022-12-24T12:05:13.511Z,1.75
2022-12-24T12:07:41.108Z,1.73
2022-12-24T12:10:16.560Z,1.90
2022-12-24T12:12:48.029Z,1.60
2022-12-24T12:15:22.117Z,1.60
2022-12-24T12:17:52.449Z,1.85
2022-12-24T12:20:24.614Z,2.00
2022-12-24T12:23:26.899Z,1.92
2022-12-24T12:26:15.751Z,1.30
2022-12-24T12:28:51.203Z,1.65
2022-12-24T12:31:21.216Z,1.30
2022-12-24T12:33:48.212Z,1.30
2022-12-24T12:36:21.903Z,1.80
2022-12-24T12:38:50.472Z,1.13
2022-12-24T12:41:27.289Z,1.17
2022-12-24T12:44:13.047Z,1.33
2022-12-24T12:46:40.123Z,1.30
2022-12-24T12:49:17.814Z,1.15
2022-12-24T12:51:57.145Z,1.30
2022-12-24T12:54:52.114Z,1.15
2022-12-24T12:57:24.214Z,1.40
2022-12-24T12:59:54.384Z,1.20
2022-12-24T13:02:58.871Z,1.17
2022-12-24T13:06:04.714Z,1.20
2022-12-24T13:08:50.388Z,1.60
2022-12-24T13:11:26.738Z,1.77
2022-12-24T13:14:24.398Z,1.52
2022-12-24T13:17:00.496Z,1.50
2022-12-24T13:20:09.978Z,1.40
2022-12-24T13:22:37.421Z,1.20
2022-12-24T13:25:05.104Z,1.40
2022-12-24T13:27:35.180Z,1.35
2022-12-24T13:30:10.202Z,1.60
2022-12-24T13:32:40.849Z,1.50
2022-12-24T13:35:19.804Z,0.90
2022-12-24T13:37:48.760Z,1.60
2022-12-24T13:40:25.668Z,1.92
2022-12-24T13:43:01.893Z,2.05
2022-12-24T13:45:32.057Z,1.75
2022-12-24T13:48:11.038Z,1.52
2022-12-24T13:50:40.807Z,1.40
2022-12-24T13:53:28.916Z,1.88
2022-12-24T13:56:02.668Z,1.35
2022-12-24T13:58:30.824Z,1.60
2022-12-24T14:01:11.899Z,0.90
2022-12-24T14:03:57.251Z,1.80
2022-12-24T14:06:48.649Z,1.33
2022-12-24T14:09:25.204Z,1.10
2022-12-24T14:12:03.954Z,0.90
2022-12-24T14:14:37.900Z,1.30
2022-12-24T14:17:10.866Z,1.00
2022-12-24T14:19:50.964Z,1.55
2022-12-24T14:22:36.568Z,0.90
2022-12-24T14:25:16.691Z,1.10
2022-12-24T14:27:47.685Z,0.77
2022-12-24T14:30:25.894Z,1.73
2022-12-24T14:32:54.060Z,1.20
2022-12-24T14:35:27.758Z,1.38
2022-12-24T14:38:18.823Z,1.13
2022-12-24T14:40:55.183Z,1.30
2022-12-24T14:43:50.740Z,1.45
2022-12-24T14:46:48.625Z,1.30
2022-12-24T14:49:27.638Z,1.30
2022-12-24T14:52:45.948Z,1.20
2022-12-24T14:55:39.867Z,1.23
2022-12-24T14:58:26.909Z,1.40
2022-12-24T15:01:03.570Z,1.30
2022-12-24T15:03:32.755Z,1.40
2022-12-24T15:06:06.986Z,1.25
2022-12-24T15:08:39.443Z,1.55
2022-12-24T15:11:09.237Z,1.20
2022-12-24T15:13:40.531Z,1.13
2022-12-24T15:16:13.207Z,1.35
2022-12-24T15:18:49.153Z,1.70
2022-12-24T15:21:20.867Z,1.17
2022-12-24T15:23:52.704Z,2.70
2022-12-24T15:26:29.370Z,1.48
2022-12-24T15:29:03.121Z,1.75
2022-12-24T15:31:31.893Z,2.72
2022-12-24T15:34:00.651Z,3.53
2022-12-24T15:36:34.014Z,3.25
2022-12-24T15:39:08.420Z,2.22
2022-12-24T15:42:01.712Z,3.15
2022-12-24T15:44:40.769Z,2.20
2022-12-24T15:47:15.560Z,1.90
2022-12-24T15:49:49.189Z,2.17
2022-12-24T15:52:19.007Z,1.90
2022-12-24T15:54:52.169Z,1.67
2022-12-24T15:57:34.011Z,1.73
2022-12-24T16:00:02.386Z,2.30
2022-12-24T16:02:39.915Z,2.05
2022-12-24T16:05:22.578Z,2.00
2022-12-24T16:08:07.833Z,1.70
2022-12-24T16:10:44.514Z,1.83
2022-12-24T16:13:25.188Z,2.10
2022-12-24T16:16:16.043Z,2.10
2022-12-24T16:18:57.157Z,2.20
2022-12-24T16:21:44.458Z,2.72
2022-12-24T16:24:20.353Z,3.10
2022-12-24T16:26:51.035Z,3.28
2022-12-24T16:29:19.567Z,2.85
2022-12-24T16:31:52.733Z,2.53
2022-12-24T16:34:24.028Z,3.33
2022-12-24T16:36:51.379Z,3.78
2022-12-24T16:39:24.563Z,3.00
2022-12-24T16:42:11.160Z,2.75
2022-12-24T16:44:39.111Z,1.95
2022-12-24T16:47:10.320Z,2.20
2022-12-24T16:49:41.284Z,2.75
2022-12-24T16:52:17.391Z,2.60
2022-12-24T16:54:44.461Z,2.00
2022-12-24T16:57:11.475Z,2.60
2022-12-24T16:59:38.905Z,2.20
2022-12-24T17:02:12.524Z,2.88
2022-12-24T17:04:41.711Z,2.30
2022-12-24T17:07:10.126Z,2.65
2022-12-24T17:09:37.162Z,3.45
2022-12-24T17:12:04.505Z,3.30
2022-12-24T17:14:32.037Z,3.08
2022-12-24T17:16:59.223Z,2.63
2022-12-24T17:19:26.321Z,2.60
2022-12-24T17:21:53.381Z,3.00
2022-12-24T17:24:20.466Z,2.20
2022-12-24T17:26:47.563Z,2.70
2022-12-24T17:29:14.579Z,2.25
2022-12-24T17:31:43.113Z,2.67
2022-12-24T17:34:10.681Z,2.20
2022-12-24T17:36:37.692Z,2.75
2022-12-24T17:39:04.771Z,2.80
2022-12-24T17:41:31.786Z,2.70
2022-12-24T17:43:59.249Z,2.80
2022-12-24T17:46:26.357Z,2.45
2022-12-24T17:48:53.576Z,2.83
2022-12-24T17:51:22.993Z,2.70
2022-12-24T17:53:50.363Z,2.10
2022-12-24T17:56:18.089Z,2.47
2022-12-24T17:58:46.842Z,2.50
2022-12-24T18:01:20.615Z,2.28
2022-12-24T18:03:49.488Z,1.90
2022-12-24T18:06:17.622Z,2.72
2022-12-24T18:08:46.973Z,2.50
2022-12-24T18:11:27.113Z,2.38
2022-12-24T18:13:55.859Z,2.35
2022-12-24T18:16:35.636Z,2.38
2022-12-24T18:19:04.988Z,2.05
2022-12-24T18:21:33.263Z,3.38
2022-12-24T18:24:00.566Z,2.08
2022-12-24T18:26:31.093Z,2.10
2022-12-24T18:29:00.407Z,3.45
2022-12-24T18:31:29.924Z,2.40
2022-12-24T18:33:57.545Z,2.65
2022-12-24T18:36:24.666Z,2.60
2022-12-24T18:38:52.406Z,3.42
2022-12-24T18:41:22.823Z,2.70
2022-12-24T18:43:50.085Z,3.83
2022-12-24T18:46:23.972Z,5.50
2022-12-24T18:48:52.138Z,6.50
2022-12-24T18:51:25.298Z,6.82
2022-12-24T18:53:53.149Z,6.50
2022-12-24T18:56:23.849Z,6.85
2022-12-24T18:58:57.151Z,4.72
2022-12-24T19:01:30.154Z,3.97
2022-12-24T19:03:57.808Z,4.05
2022-12-24T19:06:25.179Z,4.65
2022-12-24T19:09:01.686Z,4.88
2022-12-24T19:11:32.259Z,4.75
2022-12-24T19:14:00.733Z,5.13
2022-12-24T19:16:29.533Z,4.43
2022-12-24T19:18:57.643Z,4.68
2022-12-24T19:21:25.093Z,5.72
2022-12-24T19:23:52.695Z,5.00
2022-12-24T19:26:20.899Z,5.78
2022-12-24T19:28:48.475Z,5.15
2022-12-24T19:31:26.242Z,4.35
2022-12-24T19:33:56.211Z,3.03
2022-12-24T19:36:27.235Z,4.00
2022-12-24T19:38:55.725Z,3.88
2022-12-24T19:41:25.839Z,3.90
2022-12-24T19:43:55.376Z,3.45
2022-12-24T19:46:26.457Z,3.80
2022-12-24T19:48:58.101Z,3.33
2022-12-24T19:51:26.760Z,3.75
2022-12-24T19:53:58.702Z,3.72
2022-12-24T19:56:27.708Z,3.50
2022-12-24T19:58:58.899Z,3.55
2022-12-24T20:01:28.852Z,4.03
2022-12-24T20:03:56.582Z,5.20
2022-12-24T20:06:27.090Z,5.00
2022-12-24T20:09:02.795Z,4.03
2022-12-24T20:11:30.057Z,5.10
2022-12-24T20:14:01.968Z,5.43
2022-12-24T20:16:30.189Z,5.60
2022-12-24T20:18:59.873Z,6.68
2022-12-24T20:21:27.877Z,6.25
2022-12-24T20:23:55.280Z,5.82
2022-12-24T20:26:26.228Z,7.75
2022-12-24T20:28:54.091Z,7.18
2022-12-24T20:31:24.373Z,7.03
2022-12-24T20:33:52.092Z,7.82
2022-12-24T20:36:21.145Z,7.43
2022-12-24T20:38:49.110Z,8.35
2022-12-24T20:41:18.386Z,8.02
2022-12-24T20:43:48.672Z,7.93
2022-12-24T20:46:17.849Z,6.22
2022-12-24T20:48:45.471Z,6.53
2022-12-24T20:51:24.743Z,6.95
2022-12-24T20:53:54.167Z,5.60
2022-12-24T20:56:21.660Z,6.47
2022-12-24T20:58:48.883Z,7.22
2022-12-24T21:01:22.975Z,7.10
2022-12-24T21:03:50.151Z,5.10
2022-12-24T21:06:19.785Z,4.97
2022-12-24T21:08:49.666Z,4.97
2022-12-24T21:11:35.359Z,4.88
2022-12-24T21:14:03.105Z,5.00
2022-12-24T21:16:31.939Z,4.60
2022-12-24T21:18:59.177Z,4.57
2022-12-24T21:21:26.271Z,4.28
2022-12-24T21:23:53.317Z,4.40
2022-12-24T21:26:20.404Z,3.70
2022-12-24T21:28:47.607Z,4.35
2022-12-24T21:31:15.448Z,4.45
2022-12-24T21:33:43.233Z,3.58
2022-12-24T21:36:12.526Z,3.83
2022-12-24T21:38:39.905Z,3.65
2022-12-24T21:41:09.233Z,3.35
2022-12-24T21:43:36.978Z,3.22
2022-12-24T21:46:19.553Z,3.88
2022-12-24T21:49:05.189Z,3.38
2022-12-24T21:51:32.873Z,3.97
2022-12-24T21:54:18.431Z,3.35
2022-12-24T21:57:04.047Z,4.45
2022-12-24T21:59:31.643Z,4.00
2022-12-24T22:01:59.223Z,6.00
2022-12-24T22:04:26.824Z,9.05
2022-12-24T22:07:12.731Z,5.78
2022-12-24T22:09:59.005Z,4.00
2022-12-24T22:12:32.987Z,4.55
2022-12-24T22:15:00.563Z,4.57
2022-12-24T22:17:29.030Z,4.95
2022-12-24T22:19:56.195Z,7.10
2022-12-24T22:22:24.386Z,5.55
2022-12-24T22:24:51.548Z,6.03
2022-12-24T22:27:18.609Z,4.10
2022-12-24T22:29:45.694Z,4.95
2022-12-24T22:32:12.724Z,4.13
2022-12-24T22:34:39.781Z,5.18
2022-12-24T22:37:06.933Z,4.45
2022-12-24T22:39:34.120Z,4.15
2022-12-24T22:42:01.146Z,4.20
2022-12-24T22:44:28.302Z,4.72
2022-12-24T22:46:55.345Z,4.05
2022-12-24T22:49:22.476Z,4.22
2022-12-24T22:51:49.618Z,4.93
2022-12-24T22:54:16.806Z,4.55
2022-12-24T22:56:44.863Z,4.15
2022-12-24T22:59:15.070Z,3.95
2022-12-24T23:01:45.813Z,4.28
2022-12-24T23:04:14.854Z,3.60
2022-12-24T23:06:43.729Z,4.75
2022-12-24T23:09:13.257Z,5.03
2022-12-24T23:11:41.047Z,5.25
2022-12-24T23:14:38.084Z,6.43
2022-12-24T23:17:05.413Z,4.35
2022-12-24T23:19:33.727Z,4.97
2022-12-24T23:22:02.748Z,5.63
2022-12-24T23:24:29.932Z,4.65
2022-12-24T23:26:58.609Z,4.35
2022-12-24T23:29:25.700Z,5.18
2022-12-24T23:31:52.716Z,4.72
2022-12-24T23:34:19.854Z,4.55
2022-12-24T23:36:46.946Z,5.07
2022-12-24T23:39:13.983Z,4.45
2022-12-24T23:41:41.058Z,4.45
2022-12-24T23:44:08.175Z,4.57
2022-12-24T23:46:35.266Z,5.32
2022-12-24T23:49:02.291Z,5.63
2022-12-24T23:51:29.367Z,5.68
2022-12-24T23:53:58.142Z,5.50
2022-12-24T23:56:26.450Z,5.45
2022-12-24T23:58:53.679Z,5.47
